sensor_id;sensor_type;location;lat;lon;timestamp;P1;durP1;ratioP1;P2;durP2;ratioP2
16699;SDS011;8466;52.286;21.124;2023-02-01T00:01:37;43.77;;;40.37;;
16699;SDS011;8466;52.286;21.124;2023-02-01T00:04:05;36.03;;;32.97;;
16699;SDS011;8466;52.286;21.124;2023-02-01T00:06:34;41.50;;;38.30;;
16699;SDS011;8466;52.286;21.124;2023-02-01T00:09:02;36.50;;;33.73;;
16699;SDS011;8466;52.286;21.124;2023-02-01T00:11:31;41.10;;;38.10;;
16699;SDS011;8466;52.286;21.124;2023-02-01T00:13:59;33.97;;;31.60;;
16699;SDS011;8466;52.286;21.124;2023-02-01T00:16:29;32.10;;;29.93;;
16699;SDS011;8466;52.286;21.124;2023-02-01T00:19:01;34.80;;;32.30;;
16699;SDS011;8466;52.286;21.124;2023-02-01T00:21:32;33.87;;;31.53;;
16699;SDS011;8466;52.286;21.124;2023-02-01T00:24:02;34.43;;;32.13;;
16699;SDS011;8466;52.286;21.124;2023-02-01T00:26:32;37.30;;;34.93;;
16699;SDS011;8466;52.286;21.124;2023-02-01T00:29:03;34.33;;;32.07;;
16699;SDS011;8466;52.286;21.124;2023-02-01T00:31:33;34.60;;;32.40;;
16699;SDS011;8466;52.286;21.124;2023-02-01T00:34:03;32.60;;;30.40;;
16699;SDS011;8466;52.286;21.124;2023-02-01T00:36:32;29.30;;;27.30;;
16699;SDS011;8466;52.286;21.124;2023-02-01T00:39:01;39.90;;;37.37;;
16699;SDS011;8466;52.286;21.124;2023-02-01T00:41:30;34.90;;;32.70;;
16699;SDS011;8466;52.286;21.124;2023-02-01T00:43:59;37.37;;;35.07;;
16699;SDS011;8466;52.286;21.124;2023-02-01T00:46:27;33.93;;;31.50;;
16699;SDS011;8466;52.286;21.124;2023-02-01T00:48:56;35.43;;;33.17;;
16699;SDS011;8466;52.286;21.124;2023-02-01T00:51:30;34.97;;;32.87;;
16699;SDS011;8466;52.286;21.124;2023-02-01T00:53:58;38.00;;;35.77;;
16699;SDS011;8466;52.286;21.124;2023-02-01T00:56:27;38.03;;;35.37;;
16699;SDS011;8466;52.286;21.124;2023-02-01T00:58:56;36.83;;;34.43;;
16699;SDS011;8466;52.286;21.124;2023-02-01T01:01:25;37.90;;;35.53;;
16699;SDS011;8466;52.286;21.124;2023-02-01T01:03:55;42.17;;;39.60;;
16699;SDS011;8466;52.286;21.124;2023-02-01T01:06:27;46.27;;;43.50;;
16699;SDS011;8466;52.286;21.124;2023-02-01T01:08:58;44.83;;;42.27;;
16699;SDS011;8466;52.286;21.124;2023-02-01T01:11:29;36.13;;;33.97;;
16699;SDS011;8466;52.286;21.124;2023-02-01T01:13:59;40.07;;;37.63;;
16699;SDS011;8466;52.286;21.124;2023-02-01T01:16:29;30.60;;;28.73;;
16699;SDS011;8466;52.286;21.124;2023-02-01T01:18:59;30.97;;;29.20;;
16699;SDS011;8466;52.286;21.124;2023-02-01T01:21:28;35.70;;;33.50;;
16699;SDS011;8466;52.286;21.124;2023-02-01T01:23:59;25.57;;;24.07;;
16699;SDS011;8466;52.286;21.124;2023-02-01T01:26:28;23.37;;;21.97;;
16699;SDS011;8466;52.286;21.124;2023-02-01T01:28:58;28.53;;;26.83;;
16699;SDS011;8466;52.286;21.124;2023-02-01T01:31:27;30.17;;;28.43;;
16699;SDS011;8466;52.286;21.124;2023-02-01T01:33:57;33.90;;;31.70;;
16699;SDS011;8466;52.286;21.124;2023-02-01T01:36:27;23.43;;;22.00;;
16699;SDS011;8466;52.286;21.124;2023-02-01T01:38:56;30.17;;;28.43;;
16699;SDS011;8466;52.286;21.124;2023-02-01T01:41:28;29.23;;;27.60;;
16699;SDS011;8466;52.286;21.124;2023-02-01T01:43:58;21.63;;;20.23;;
16699;SDS011;8466;52.286;21.124;2023-02-01T01:46:29;32.73;;;30.73;;
16699;SDS011;8466;52.286;21.124;2023-02-01T01:49:01;27.97;;;26.07;;
16699;SDS011;8466;52.286;21.124;2023-02-01T01:51:36;17.53;;;16.23;;
16699;SDS011;8466;52.286;21.124;2023-02-01T01:54:10;24.80;;;23.17;;
16699;SDS011;8466;52.286;21.124;2023-02-01T01:56:44;29.77;;;28.03;;
16699;SDS011;8466;52.286;21.124;2023-02-01T01:59:17;22.70;;;21.10;;
16699;SDS011;8466;52.286;21.124;2023-02-01T02:01:47;24.87;;;23.30;;
16699;SDS011;8466;52.286;21.124;2023-02-01T02:04:16;27.23;;;25.53;;
16699;SDS011;8466;52.286;21.124;2023-02-01T02:06:45;36.43;;;34.13;;
16699;SDS011;8466;52.286;21.124;2023-02-01T02:09:19;40.43;;;37.83;;
16699;SDS011;8466;52.286;21.124;2023-02-01T02:11:48;36.40;;;34.07;;
16699;SDS011;8466;52.286;21.124;2023-02-01T02:14:17;29.90;;;28.03;;
16699;SDS011;8466;52.286;21.124;2023-02-01T02:16:54;30.77;;;28.73;;
16699;SDS011;8466;52.286;21.124;2023-02-01T02:19:44;28.73;;;26.27;;
16699;SDS011;8466;52.286;21.124;2023-02-01T02:22:50;26.70;;;24.90;;
16699;SDS011;8466;52.286;21.124;2023-02-01T02:29:07;26.73;;;24.63;;
16699;SDS011;8466;52.286;21.124;2023-02-01T02:32:15;22.80;;;20.67;;
16699;SDS011;8466;52.286;21.124;2023-02-01T02:35:09;22.30;;;20.33;;
16699;SDS011;8466;52.286;21.124;2023-02-01T02:37:45;32.90;;;30.63;;
16699;SDS011;8466;52.286;21.124;2023-02-01T02:40:22;46.03;;;43.33;;
16699;SDS011;8466;52.286;21.124;2023-02-01T02:43:01;50.60;;;47.23;;
16699;SDS011;8466;52.286;21.124;2023-02-01T02:46:09;35.93;;;33.53;;
16699;SDS011;8466;52.286;21.124;2023-02-01T02:49:03;29.97;;;27.80;;
16699;SDS011;8466;52.286;21.124;2023-02-01T02:51:41;27.48;;;25.58;;
16699;SDS011;8466;52.286;21.124;2023-02-01T02:54:31;52.07;;;48.83;;
16699;SDS011;8466;52.286;21.124;2023-02-01T02:57:19;73.73;;;69.07;;
16699;SDS011;8466;52.286;21.124;2023-02-01T03:00:08;76.13;;;71.30;;
16699;SDS011;8466;52.286;21.124;2023-02-01T03:02:57;63.03;;;59.23;;
16699;SDS011;8466;52.286;21.124;2023-02-01T03:05:44;68.70;;;64.67;;
16699;SDS011;8466;52.286;21.124;2023-02-01T03:08:15;71.73;;;67.40;;
16699;SDS011;8466;52.286;21.124;2023-02-01T03:10:51;72.63;;;68.23;;
16699;SDS011;8466;52.286;21.124;2023-02-01T03:13:27;65.40;;;61.53;;
16699;SDS011;8466;52.286;21.124;2023-02-01T03:16:01;58.73;;;55.30;;
16699;SDS011;8466;52.286;21.124;2023-02-01T03:18:36;66.53;;;62.53;;
16699;SDS011;8466;52.286;21.124;2023-02-01T03:21:11;56.63;;;53.07;;
16699;SDS011;8466;52.286;21.124;2023-02-01T03:23:45;62.47;;;58.27;;
16699;SDS011;8466;52.286;21.124;2023-02-01T03:26:17;66.00;;;61.70;;
16699;SDS011;8466;52.286;21.124;2023-02-01T03:28:50;61.23;;;57.50;;
16699;SDS011;8466;52.286;21.124;2023-02-01T03:31:23;62.73;;;58.80;;
16699;SDS011;8466;52.286;21.124;2023-02-01T03:33:52;55.87;;;52.23;;
16699;SDS011;8466;52.286;21.124;2023-02-01T03:36:23;63.47;;;59.33;;
16699;SDS011;8466;52.286;21.124;2023-02-01T03:38:58;61.73;;;58.07;;
16699;SDS011;8466;52.286;21.124;2023-02-01T03:41:34;45.30;;;42.23;;
16699;SDS011;8466;52.286;21.124;2023-02-01T03:44:08;37.23;;;34.50;;
16699;SDS011;8466;52.286;21.124;2023-02-01T03:46:42;44.73;;;41.63;;
16699;SDS011;8466;52.286;21.124;2023-02-01T03:49:18;35.63;;;32.83;;
16699;SDS011;8466;52.286;21.124;2023-02-01T03:51:49;41.80;;;38.83;;
16699;SDS011;8466;52.286;21.124;2023-02-01T03:54:21;36.20;;;33.87;;
16699;SDS011;8466;52.286;21.124;2023-02-01T03:56:50;32.30;;;29.87;;
16699;SDS011;8466;52.286;21.124;2023-02-01T03:59:21;38.20;;;35.60;;
16699;SDS011;8466;52.286;21.124;2023-02-01T04:01:50;31.77;;;29.63;;
16699;SDS011;8466;52.286;21.124;2023-02-01T04:04:19;29.80;;;27.90;;
16699;SDS011;8466;52.286;21.124;2023-02-01T04:06:48;38.43;;;35.63;;
16699;SDS011;8466;52.286;21.124;2023-02-01T04:09:17;34.60;;;31.77;;
16699;SDS011;8466;52.286;21.124;2023-02-01T04:11:47;29.47;;;27.07;;
16699;SDS011;8466;52.286;21.124;2023-02-01T04:14:16;31.37;;;29.07;;
16699;SDS011;8466;52.286;21.124;2023-02-01T04:16:45;22.43;;;20.73;;
16699;SDS011;8466;52.286;21.124;2023-02-01T04:19:13;23.87;;;21.90;;
16699;SDS011;8466;52.286;21.124;2023-02-01T04:21:42;28.40;;;26.40;;
16699;SDS011;8466;52.286;21.124;2023-02-01T04:24:11;21.97;;;19.90;;
16699;SDS011;8466;52.286;21.124;2023-02-01T04:26:40;27.07;;;24.90;;
16699;SDS011;8466;52.286;21.124;2023-02-01T04:29:11;29.13;;;26.97;;
16699;SDS011;8466;52.286;21.124;2023-02-01T04:31:40;30.50;;;28.23;;
16699;SDS011;8466;52.286;21.124;2023-02-01T04:34:08;32.53;;;29.93;;
16699;SDS011;8466;52.286;21.124;2023-02-01T04:36:37;29.43;;;27.23;;
16699;SDS011;8466;52.286;21.124;2023-02-01T04:39:05;37.03;;;34.33;;
16699;SDS011;8466;52.286;21.124;2023-02-01T04:41:35;34.30;;;31.90;;
16699;SDS011;8466;52.286;21.124;2023-02-01T04:44:04;42.20;;;38.87;;
16699;SDS011;8466;52.286;21.124;2023-02-01T04:46:34;40.03;;;37.13;;
16699;SDS011;8466;52.286;21.124;2023-02-01T04:49:03;34.40;;;32.20;;
16699;SDS011;8466;52.286;21.124;2023-02-01T04:51:31;40.70;;;38.10;;
16699;SDS011;8466;52.286;21.124;2023-02-01T04:54:00;34.00;;;31.03;;
16699;SDS011;8466;52.286;21.124;2023-02-01T04:56:28;44.43;;;41.40;;
16699;SDS011;8466;52.286;21.124;2023-02-01T04:58:57;43.83;;;40.87;;
16699;SDS011;8466;52.286;21.124;2023-02-01T05:01:25;51.67;;;48.23;;
16699;SDS011;8466;52.286;21.124;2023-02-01T05:03:59;12.70;;;7.70;;
16699;SDS011;8466;52.286;21.124;2023-02-01T05:06:27;23.77;;;21.67;;
16699;SDS011;8466;52.286;21.124;2023-02-01T05:08:56;59.80;;;56.07;;
16699;SDS011;8466;52.286;21.124;2023-02-01T05:11:25;59.37;;;55.40;;
16699;SDS011;8466;52.286;21.124;2023-02-01T05:14:11;60.67;;;56.63;;
16699;SDS011;8466;52.286;21.124;2023-02-01T05:16:40;66.60;;;62.13;;
16699;SDS011;8466;52.286;21.124;2023-02-01T05:19:10;67.40;;;62.73;;
16699;SDS011;8466;52.286;21.124;2023-02-01T05:21:39;58.40;;;54.67;;
16699;SDS011;8466;52.286;21.124;2023-02-01T05:24:07;60.73;;;56.93;;
16699;SDS011;8466;52.286;21.124;2023-02-01T05:26:46;50.80;;;47.13;;
16699;SDS011;8466;52.286;21.124;2023-02-01T05:29:15;62.73;;;58.50;;
16699;SDS011;8466;52.286;21.124;2023-02-01T05:31:45;56.63;;;53.10;;
16699;SDS011;8466;52.286;21.124;2023-02-01T05:34:16;52.63;;;49.13;;
16699;SDS011;8466;52.286;21.124;2023-02-01T05:36:45;50.37;;;47.00;;
16699;SDS011;8466;52.286;21.124;2023-02-01T05:39:13;53.40;;;49.83;;
16699;SDS011;8466;52.286;21.124;2023-02-01T05:41:42;52.77;;;48.90;;
16699;SDS011;8466;52.286;21.124;2023-02-01T05:44:11;54.43;;;50.50;;
16699;SDS011;8466;52.286;21.124;2023-02-01T05:46:39;52.88;;;49.22;;
16699;SDS011;8466;52.286;21.124;2023-02-01T05:49:08;60.03;;;56.10;;
16699;SDS011;8466;52.286;21.124;2023-02-01T05:51:38;76.07;;;71.17;;
16699;SDS011;8466;52.286;21.124;2023-02-01T05:54:08;58.57;;;54.77;;
16699;SDS011;8466;52.286;21.124;2023-02-01T05:56:37;34.58;;;31.50;;
16699;SDS011;8466;52.286;21.124;2023-02-01T05:59:07;64.50;;;60.20;;
16699;SDS011;8466;52.286;21.124;2023-02-01T06:01:37;72.87;;;68.13;;
16699;SDS011;8466;52.286;21.124;2023-02-01T06:04:05;63.17;;;58.73;;
16699;SDS011;8466;52.286;21.124;2023-02-01T06:06:34;18.75;;;17.00;;
16699;SDS011;8466;52.286;21.124;2023-02-01T06:09:04;47.57;;;44.27;;
16699;SDS011;8466;52.286;21.124;2023-02-01T06:11:33;76.70;;;71.63;;
16699;SDS011;8466;52.286;21.124;2023-02-01T06:14:02;66.60;;;62.20;;
16699;SDS011;8466;52.286;21.124;2023-02-01T06:16:30;67.73;;;63.13;;
16699;SDS011;8466;52.286;21.124;2023-02-01T06:18:59;61.63;;;57.23;;
16699;SDS011;8466;52.286;21.124;2023-02-01T06:21:28;60.50;;;56.33;;
16699;SDS011;8466;52.286;21.124;2023-02-01T06:23:57;62.07;;;58.07;;
16699;SDS011;8466;52.286;21.124;2023-02-01T06:26:27;69.30;;;65.03;;
16699;SDS011;8466;52.286;21.124;2023-02-01T06:28:57;56.93;;;52.60;;
16699;SDS011;8466;52.286;21.124;2023-02-01T06:31:25;41.87;;;38.97;;
16699;SDS011;8466;52.286;21.124;2023-02-01T06:33:54;63.23;;;59.43;;
16699;SDS011;8466;52.286;21.124;2023-02-01T06:36:23;60.13;;;56.20;;
16699;SDS011;8466;52.286;21.124;2023-02-01T06:38:52;53.77;;;50.23;;
16699;SDS011;8466;52.286;21.124;2023-02-01T06:41:23;46.70;;;43.47;;
16699;SDS011;8466;52.286;21.124;2023-02-01T06:43:56;49.90;;;46.73;;
16699;SDS011;8466;52.286;21.124;2023-02-01T06:46:25;52.67;;;49.27;;
16699;SDS011;8466;52.286;21.124;2023-02-01T06:48:53;59.07;;;55.00;;
16699;SDS011;8466;52.286;21.124;2023-02-01T06:51:23;58.53;;;54.70;;
16699;SDS011;8466;52.286;21.124;2023-02-01T06:53:54;57.10;;;53.37;;
16699;SDS011;8466;52.286;21.124;2023-02-01T06:56:23;59.10;;;55.47;;
16699;SDS011;8466;52.286;21.124;2023-02-01T06:58:53;53.07;;;49.27;;
16699;SDS011;8466;52.286;21.124;2023-02-01T07:01:23;55.13;;;51.23;;
16699;SDS011;8466;52.286;21.124;2023-02-01T07:03:53;44.37;;;41.00;;
16699;SDS011;8466;52.286;21.124;2023-02-01T07:06:21;17.55;;;15.93;;
16699;SDS011;8466;52.286;21.124;2023-02-01T07:08:50;49.03;;;45.43;;
16699;SDS011;8466;52.286;21.124;2023-02-01T07:11:23;59.03;;;55.53;;
16699;SDS011;8466;52.286;21.124;2023-02-01T07:13:53;63.13;;;58.70;;
16699;SDS011;8466;52.286;21.124;2023-02-01T07:16:24;47.77;;;44.40;;
16699;SDS011;8466;52.286;21.124;2023-02-01T07:18:52;55.57;;;52.13;;
16699;SDS011;8466;52.286;21.124;2023-02-01T07:21:21;52.20;;;48.70;;
16699;SDS011;8466;52.286;21.124;2023-02-01T07:23:50;51.73;;;48.27;;
16699;SDS011;8466;52.286;21.124;2023-02-01T07:26:18;47.43;;;44.07;;
16699;SDS011;8466;52.286;21.124;2023-02-01T07:28:47;42.20;;;39.23;;
16699;SDS011;8466;52.286;21.124;2023-02-01T07:31:17;49.47;;;46.07;;
16699;SDS011;8466;52.286;21.124;2023-02-01T07:33:49;50.83;;;46.67;;
16699;SDS011;8466;52.286;21.124;2023-02-01T07:36:19;53.43;;;49.80;;
16699;SDS011;8466;52.286;21.124;2023-02-01T07:38:48;45.73;;;42.07;;
16699;SDS011;8466;52.286;21.124;2023-02-01T07:41:20;44.53;;;41.03;;
16699;SDS011;8466;52.286;21.124;2023-02-01T07:43:51;50.63;;;46.80;;
16699;SDS011;8466;52.286;21.124;2023-02-01T07:46:20;50.27;;;46.30;;
16699;SDS011;8466;52.286;21.124;2023-02-01T07:48:50;53.97;;;50.37;;
16699;SDS011;8466;52.286;21.124;2023-02-01T07:51:19;53.70;;;50.07;;
16699;SDS011;8466;52.286;21.124;2023-02-01T07:53:47;54.10;;;50.63;;
16699;SDS011;8466;52.286;21.124;2023-02-01T07:56:18;62.40;;;58.07;;
16699;SDS011;8466;52.286;21.124;2023-02-01T07:58:49;60.60;;;56.67;;
16699;SDS011;8466;52.286;21.124;2023-02-01T08:01:18;62.50;;;58.30;;
16699;SDS011;8466;52.286;21.124;2023-02-01T08:03:47;69.70;;;65.13;;
16699;SDS011;8466;52.286;21.124;2023-02-01T08:06:18;61.23;;;56.60;;
16699;SDS011;8466;52.286;21.124;2023-02-01T08:08:48;64.43;;;59.63;;
16699;SDS011;8466;52.286;21.124;2023-02-01T08:11:17;63.70;;;59.33;;
16699;SDS011;8466;52.286;21.124;2023-02-01T08:13:49;59.73;;;55.60;;
16699;SDS011;8466;52.286;21.124;2023-02-01T08:16:19;57.00;;;52.87;;
16699;SDS011;8466;52.286;21.124;2023-02-01T08:18:49;59.67;;;55.87;;
16699;SDS011;8466;52.286;21.124;2023-02-01T08:21:20;59.63;;;55.17;;
16699;SDS011;8466;52.286;21.124;2023-02-01T08:23:50;60.30;;;55.93;;
16699;SDS011;8466;52.286;21.124;2023-02-01T08:26:20;59.63;;;55.63;;
16699;SDS011;8466;52.286;21.124;2023-02-01T08:28:52;64.97;;;60.83;;
16699;SDS011;8466;52.286;21.124;2023-02-01T08:31:22;58.47;;;54.27;;
16699;SDS011;8466;52.286;21.124;2023-02-01T08:33:57;53.77;;;50.40;;
16699;SDS011;8466;52.286;21.124;2023-02-01T08:36:35;57.53;;;53.33;;
16699;SDS011;8466;52.286;21.124;2023-02-01T08:39:08;61.53;;;57.30;;
16699;SDS011;8466;52.286;21.124;2023-02-01T08:41:41;67.87;;;63.43;;
16699;SDS011;8466;52.286;21.124;2023-02-01T08:44:34;64.27;;;59.60;;
16699;SDS011;8466;52.286;21.124;2023-02-01T08:47:03;65.90;;;61.10;;
16699;SDS011;8466;52.286;21.124;2023-02-01T08:49:31;59.63;;;55.43;;
16699;SDS011;8466;52.286;21.124;2023-02-01T08:52:02;73.87;;;68.60;;
16699;SDS011;8466;52.286;21.124;2023-02-01T08:54:40;82.00;;;76.73;;
16699;SDS011;8466;52.286;21.124;2023-02-01T08:57:09;84.40;;;78.60;;
16699;SDS011;8466;52.286;21.124;2023-02-01T08:59:38;49.70;;;46.23;;
16699;SDS011;8466;52.286;21.124;2023-02-01T09:02:08;51.30;;;47.53;;
16699;SDS011;8466;52.286;21.124;2023-02-01T09:04:39;58.27;;;53.90;;
16699;SDS011;8466;52.286;21.124;2023-02-01T09:07:10;55.73;;;52.00;;
16699;SDS011;8466;52.286;21.124;2023-02-01T09:09:39;55.60;;;51.83;;
16699;SDS011;8466;52.286;21.124;2023-02-01T09:12:09;58.60;;;54.47;;
16699;SDS011;8466;52.286;21.124;2023-02-01T09:14:37;52.10;;;48.27;;
16699;SDS011;8466;52.286;21.124;2023-02-01T09:17:06;66.90;;;62.03;;
16699;SDS011;8466;52.286;21.124;2023-02-01T09:19:35;59.60;;;55.73;;
16699;SDS011;8466;52.286;21.124;2023-02-01T09:22:03;52.77;;;48.87;;
16699;SDS011;8466;52.286;21.124;2023-02-01T09:24:33;69.83;;;64.90;;
16699;SDS011;8466;52.286;21.124;2023-02-01T09:27:02;64.67;;;60.10;;
16699;SDS011;8466;52.286;21.124;2023-02-01T09:29:31;84.43;;;78.53;;
16699;SDS011;8466;52.286;21.124;2023-02-01T09:32:00;72.90;;;68.03;;
16699;SDS011;8466;52.286;21.124;2023-02-01T09:34:30;78.47;;;73.37;;
16699;SDS011;8466;52.286;21.124;2023-02-01T09:36:59;68.33;;;63.83;;
16699;SDS011;8466;52.286;21.124;2023-02-01T09:39:28;73.27;;;68.23;;
16699;SDS011;8466;52.286;21.124;2023-02-01T09:42:02;50.27;;;46.77;;
16699;SDS011;8466;52.286;21.124;2023-02-01T09:44:44;60.50;;;56.27;;
16699;SDS011;8466;52.286;21.124;2023-02-01T09:47:27;59.83;;;55.80;;
16699;SDS011;8466;52.286;21.124;2023-02-01T09:49:58;63.27;;;59.00;;
16699;SDS011;8466;52.286;21.124;2023-02-01T09:52:31;69.77;;;62.33;;
16699;SDS011;8466;52.286;21.124;2023-02-01T09:55:07;56.33;;;52.27;;
16699;SDS011;8466;52.286;21.124;2023-02-01T09:57:45;43.00;;;39.77;;
16699;SDS011;8466;52.286;21.124;2023-02-01T10:00:19;44.20;;;41.07;;
16699;SDS011;8466;52.286;21.124;2023-02-01T10:02:52;51.53;;;48.03;;
16699;SDS011;8466;52.286;21.124;2023-02-01T10:05:26;63.20;;;58.77;;
16699;SDS011;8466;52.286;21.124;2023-02-01T10:08:12;48.07;;;44.67;;
16699;SDS011;8466;52.286;21.124;2023-02-01T10:10:53;54.70;;;51.00;;
16699;SDS011;8466;52.286;21.124;2023-02-01T10:13:34;44.43;;;41.40;;
16699;SDS011;8466;52.286;21.124;2023-02-01T10:16:17;53.67;;;49.83;;
16699;SDS011;8466;52.286;21.124;2023-02-01T10:19:02;44.47;;;41.17;;
16699;SDS011;8466;52.286;21.124;2023-02-01T10:21:47;60.43;;;56.33;;
16699;SDS011;8466;52.286;21.124;2023-02-01T10:24:37;66.20;;;61.97;;
16699;SDS011;8466;52.286;21.124;2023-02-01T10:27:11;73.77;;;68.73;;
16699;SDS011;8466;52.286;21.124;2023-02-01T10:29:44;47.30;;;43.77;;
16699;SDS011;8466;52.286;21.124;2023-02-01T10:32:15;52.00;;;48.37;;
16699;SDS011;8466;52.286;21.124;2023-02-01T10:34:48;38.40;;;35.67;;
16699;SDS011;8466;52.286;21.124;2023-02-01T10:37:23;47.20;;;43.97;;
16699;SDS011;8466;52.286;21.124;2023-02-01T10:39:55;45.60;;;42.40;;
16699;SDS011;8466;52.286;21.124;2023-02-01T10:42:26;44.95;;;41.55;;
16699;SDS011;8466;52.286;21.124;2023-02-01T10:44:59;22.15;;;20.25;;
16699;SDS011;8466;52.286;21.124;2023-02-01T10:47:31;35.07;;;32.30;;
16699;SDS011;8466;52.286;21.124;2023-02-01T10:50:02;59.47;;;55.57;;
16699;SDS011;8466;52.286;21.124;2023-02-01T10:52:43;45.73;;;42.53;;
16699;SDS011;8466;52.286;21.124;2023-02-01T10:55:36;46.27;;;42.20;;
16699;SDS011;8466;52.286;21.124;2023-02-01T10:58:07;58.47;;;54.20;;
16699;SDS011;8466;52.286;21.124;2023-02-01T11:00:45;61.43;;;57.27;;
16699;SDS011;8466;52.286;21.124;2023-02-01T11:03:30;54.30;;;50.67;;
16699;SDS011;8466;52.286;21.124;2023-02-01T11:06:02;58.80;;;54.60;;
16699;SDS011;8466;52.286;21.124;2023-02-01T11:08:47;76.90;;;71.83;;
16699;SDS011;8466;52.286;21.124;2023-02-01T11:11:17;44.33;;;41.30;;
16699;SDS011;8466;52.286;21.124;2023-02-01T11:13:53;52.63;;;48.53;;
16699;SDS011;8466;52.286;21.124;2023-02-01T11:16:29;38.60;;;35.47;;
16699;SDS011;8466;52.286;21.124;2023-02-01T11:19:01;43.00;;;39.87;;
16699;SDS011;8466;52.286;21.124;2023-02-01T11:21:30;50.20;;;46.70;;
16699;SDS011;8466;52.286;21.124;2023-02-01T11:24:00;48.13;;;44.37;;
16699;SDS011;8466;52.286;21.124;2023-02-01T11:26:31;48.87;;;45.23;;
16699;SDS011;8466;52.286;21.124;2023-02-01T11:29:01;56.17;;;52.07;;
16699;SDS011;8466;52.286;21.124;2023-02-01T11:31:33;49.97;;;46.20;;
16699;SDS011;8466;52.286;21.124;2023-02-01T11:34:05;52.47;;;48.67;;
16699;SDS011;8466;52.286;21.124;2023-02-01T11:36:38;55.77;;;51.73;;
16699;SDS011;8466;52.286;21.124;2023-02-01T11:39:09;49.77;;;45.97;;
16699;SDS011;8466;52.286;21.124;2023-02-01T11:41:54;44.17;;;41.13;;
16699;SDS011;8466;52.286;21.124;2023-02-01T11:44:29;49.93;;;46.63;;
16699;SDS011;8466;52.286;21.124;2023-02-01T11:47:23;56.33;;;52.60;;
16699;SDS011;8466;52.286;21.124;2023-02-01T11:49:54;49.72;;;46.20;;
16699;SDS011;8466;52.286;21.124;2023-02-01T11:52:29;52.50;;;48.67;;
16699;SDS011;8466;52.286;21.124;2023-02-01T11:55:39;51.13;;;48.07;;
16699;SDS011;8466;52.286;21.124;2023-02-01T12:01:32;68.33;;;63.53;;
16699;SDS011;8466;52.286;21.124;2023-02-01T12:04:18;61.60;;;56.73;;
16699;SDS011;8466;52.286;21.124;2023-02-01T12:07:11;63.77;;;59.43;;
16699;SDS011;8466;52.286;21.124;2023-02-01T12:09:51;60.13;;;55.20;;
16699;SDS011;8466;52.286;21.124;2023-02-01T12:12:32;55.27;;;51.30;;
16699;SDS011;8466;52.286;21.124;2023-02-01T12:21:50;62.83;;;58.67;;
16699;SDS011;8466;52.286;21.124;2023-02-01T12:24:32;72.27;;;67.50;;
16699;SDS011;8466;52.286;21.124;2023-02-01T12:27:28;65.07;;;60.87;;
16699;SDS011;8466;52.286;21.124;2023-02-01T12:30:23;49.43;;;45.47;;
16699;SDS011;8466;52.286;21.124;2023-02-01T12:33:04;42.13;;;39.13;;
16699;SDS011;8466;52.286;21.124;2023-02-01T12:35:53;55.90;;;52.00;;
16699;SDS011;8466;52.286;21.124;2023-02-01T12:38:36;35.60;;;32.97;;
16699;SDS011;8466;52.286;21.124;2023-02-01T12:41:21;31.57;;;28.77;;
16699;SDS011;8466;52.286;21.124;2023-02-01T12:44:24;48.90;;;44.03;;
16699;SDS011;8466;52.286;21.124;2023-02-01T12:47:00;44.63;;;40.77;;
16699;SDS011;8466;52.286;21.124;2023-02-01T12:49:36;61.87;;;55.77;;
16699;SDS011;8466;52.286;21.124;2023-02-01T12:52:13;113.17;;;77.67;;
16699;SDS011;8466;52.286;21.124;2023-02-01T12:54:49;59.37;;;54.67;;
16699;SDS011;8466;52.286;21.124;2023-02-01T12:57:24;52.30;;;48.33;;
16699;SDS011;8466;52.286;21.124;2023-02-01T12:59:56;59.60;;;55.40;;
16699;SDS011;8466;52.286;21.124;2023-02-01T13:02:35;78.03;;;70.97;;
16699;SDS011;8466;52.286;21.124;2023-02-01T13:05:13;69.27;;;63.40;;
16699;SDS011;8466;52.286;21.124;2023-02-01T13:07:46;64.93;;;58.83;;
16699;SDS011;8466;52.286;21.124;2023-02-01T13:10:23;73.33;;;67.57;;
16699;SDS011;8466;52.286;21.124;2023-02-01T13:12:59;67.03;;;61.40;;
16699;SDS011;8466;52.286;21.124;2023-02-01T13:15:38;62.20;;;57.37;;
16699;SDS011;8466;52.286;21.124;2023-02-01T13:18:11;62.70;;;57.97;;
16699;SDS011;8466;52.286;21.124;2023-02-01T13:20:47;66.50;;;61.80;;
16699;SDS011;8466;52.286;21.124;2023-02-01T13:23:23;68.53;;;63.33;;
16699;SDS011;8466;52.286;21.124;2023-02-01T13:25:56;77.03;;;71.73;;
16699;SDS011;8466;52.286;21.124;2023-02-01T13:28:26;75.23;;;69.93;;
16699;SDS011;8466;52.286;21.124;2023-02-01T13:31:03;69.97;;;65.13;;
16699;SDS011;8466;52.286;21.124;2023-02-01T13:33:58;70.67;;;65.67;;
16699;SDS011;8466;52.286;21.124;2023-02-01T13:37:03;89.50;;;83.37;;
16699;SDS011;8466;52.286;21.124;2023-02-01T13:39:48;99.40;;;93.20;;
16699;SDS011;8466;52.286;21.124;2023-02-01T13:42:29;80.60;;;75.23;;
16699;SDS011;8466;52.286;21.124;2023-02-01T13:45:03;80.40;;;74.83;;
16699;SDS011;8466;52.286;21.124;2023-02-01T13:47:34;58.97;;;54.57;;
16699;SDS011;8466;52.286;21.124;2023-02-01T13:50:12;64.70;;;60.30;;
16699;SDS011;8466;52.286;21.124;2023-02-01T13:52:51;60.60;;;55.70;;
16699;SDS011;8466;52.286;21.124;2023-02-01T13:55:31;56.23;;;51.80;;
16699;SDS011;8466;52.286;21.124;2023-02-01T13:58:10;63.93;;;59.20;;
16699;SDS011;8466;52.286;21.124;2023-02-01T14:00:45;50.00;;;46.20;;
16699;SDS011;8466;52.286;21.124;2023-02-01T14:03:15;51.27;;;47.33;;
16699;SDS011;8466;52.286;21.124;2023-02-01T14:06:02;42.33;;;39.03;;
16699;SDS011;8466;52.286;21.124;2023-02-01T14:11:44;48.07;;;44.67;;
16699;SDS011;8466;52.286;21.124;2023-02-01T14:23:22;42.30;;;39.40;;
16699;SDS011;8466;52.286;21.124;2023-02-01T14:26:02;53.23;;;49.53;;
16699;SDS011;8466;52.286;21.124;2023-02-01T14:28:35;48.47;;;45.20;;
16699;SDS011;8466;52.286;21.124;2023-02-01T14:31:30;65.63;;;61.53;;
16699;SDS011;8466;52.286;21.124;2023-02-01T14:34:16;43.20;;;40.20;;
16699;SDS011;8466;52.286;21.124;2023-02-01T14:36:59;31.00;;;28.77;;
16699;SDS011;8466;52.286;21.124;2023-02-01T14:39:49;56.63;;;52.57;;
16699;SDS011;8466;52.286;21.124;2023-02-01T14:42:24;76.10;;;71.40;;
16699;SDS011;8466;52.286;21.124;2023-02-01T14:44:55;63.53;;;59.40;;
16699;SDS011;8466;52.286;21.124;2023-02-01T14:47:51;40.60;;;37.60;;
16699;SDS011;8466;52.286;21.124;2023-02-01T14:50:31;37.17;;;34.73;;
16699;SDS011;8466;52.286;21.124;2023-02-01T14:55:59;39.60;;;36.63;;
16699;SDS011;8466;52.286;21.124;2023-02-01T14:58:35;41.03;;;38.13;;
16699;SDS011;8466;52.286;21.124;2023-02-01T15:01:15;31.93;;;29.77;;
16699;SDS011;8466;52.286;21.124;2023-02-01T15:03:52;37.43;;;34.87;;
16699;SDS011;8466;52.286;21.124;2023-02-01T15:09:12;48.60;;;45.47;;
16699;SDS011;8466;52.286;21.124;2023-02-01T15:11:54;37.80;;;35.37;;
16699;SDS011;8466;52.286;21.124;2023-02-01T15:14:25;29.77;;;27.70;;
16699;SDS011;8466;52.286;21.124;2023-02-01T15:16:54;26.70;;;24.63;;
16699;SDS011;8466;52.286;21.124;2023-02-01T15:19:25;43.10;;;40.43;;
16699;SDS011;8466;52.286;21.124;2023-02-01T15:21:56;37.53;;;35.00;;
16699;SDS011;8466;52.286;21.124;2023-02-01T15:24:27;45.43;;;42.07;;
16699;SDS011;8466;52.286;21.124;2023-02-01T15:27:03;81.30;;;75.70;;
16699;SDS011;8466;52.286;21.124;2023-02-01T15:29:32;181.57;;;171.00;;
16699;SDS011;8466;52.286;21.124;2023-02-01T15:32:02;165.73;;;155.50;;